Time;durP1;ratioP1;P1;durP2;ratioP2;P2;SDS_P1;SDS_P2;PMS_P1;PMS_P2;Temp;Humidity;BMP_temperature;BMP_pressure;BME280_temperature;BME280_humidity;BME280_pressure;Samples;Min_cycle;Max_cycle;Signal;HPM_P1;HPM_P2
2021/10/14 00:02:22;;;;;;;36.48;27.13;;;;;;;6.63;84.48;97092.75;1760560;78;21023;-81
2021/10/14 00:04:48;;;;;;;34.05;26.93;;;;;;;6.65;84.25;97098.25;1780851;79;21093;-81
2021/10/14 00:07:14;;;;;;;34.98;26.75;;;;;;;6.53;84.13;97095.04;1779369;79;21058;-82
2021/10/14 00:09:40;;;;;;;35.48;27.00;;;;;;;6.49;84.15;97102.70;1783321;79;21519;-81
2021/10/14 00:12:05;;;;;;;34.50;26.20;;;;;;;6.45;84.25;97101.36;1772796;79;21074;-81
2021/10/14 00:14:31;;;;;;;33.85;24.65;;;;;;;6.42;84.33;97102.45;1780098;79;21068;-81
2021/10/14 00:16:57;;;;;;;31.97;25.23;;;;;;;6.42;84.23;97099.88;1789187;79;21124;-81
2021/10/14 00:19:23;;;;;;;36.25;27.58;;;;;;;6.44;84.41;97099.25;1770909;80;21103;-81
2021/10/14 00:21:48;;;;;;;35.05;25.72;;;;;;;6.43;84.40;97100.20;1778491;79;21467;-81
2021/10/14 00:24:16;;;;;;;35.63;26.40;;;;;;;6.42;84.41;97100.34;1801516;78;21116;-81
2021/10/14 00:26:42;;;;;;;33.78;24.87;;;;;;;6.38;84.26;97092.55;1800477;79;21049;-81
2021/10/14 00:29:08;;;;;;;34.70;25.10;;;;;;;6.33;84.07;97090.36;1800108;78;21112;-81
2021/10/14 00:31:34;;;;;;;38.90;26.33;;;;;;;6.36;84.18;97085.42;1801438;79;21128;-81
2021/10/14 00:34:00;;;;;;;37.10;26.42;;;;;;;6.38;84.30;97086.91;1742635;81;21487;-81
2021/10/14 00:36:25;;;;;;;35.52;27.13;;;;;;;6.38;84.22;97084.33;1745167;79;21529;-81
2021/10/14 00:38:52;;;;;;;36.10;26.68;;;;;;;6.31;83.93;97087.92;1760628;80;21073;-81
2021/10/14 00:41:18;;;;;;;39.33;29.10;;;;;;;6.25;83.97;97088.95;1771959;79;21498;-81
2021/10/14 00:43:43;;;;;;;55.15;41.55;;;;;;;6.22;84.14;97088.77;1794826;79;21079;-81
2021/10/14 00:46:16;;;;;;;35.63;24.20;;;;;;;6.20;84.38;97090.67;1808220;78;21105;-81
2021/10/14 00:48:41;;;;;;;32.40;24.47;;;;;;;6.22;84.38;97086.18;1801695;79;21055;-82
2021/10/14 00:51:07;;;;;;;32.95;25.72;;;;;;;6.28;84.37;97087.39;1803329;78;21200;-81
2021/10/14 00:53:36;;;;;;;36.23;26.23;;;;;;;6.31;84.38;97084.05;1805752;79;21054;-81
2021/10/14 00:56:02;;;;;;;33.78;24.57;;;;;;;6.32;84.39;97088.73;1799247;78;21617;-81
2021/10/14 00:58:27;;;;;;;32.67;24.77;;;;;;;6.29;84.12;97091.59;1790339;77;21124;-81
2021/10/14 01:00:53;;;;;;;31.50;24.02;;;;;;;6.14;83.85;97085.22;1824129;77;21056;-81
2021/10/14 01:03:19;;;;;;;33.58;24.87;;;;;;;6.12;83.98;97089.70;1836121;77;21075;-81
2021/10/14 01:05:45;;;;;;;28.52;23.52;;;;;;;6.11;83.93;97091.95;1795235;78;21550;-83
2021/10/14 01:08:11;;;;;;;32.85;25.55;;;;;;;6.11;83.91;97086.31;1712669;81;21113;-82
2021/10/14 01:10:36;;;;;;;31.65;24.98;;;;;;;6.11;83.97;97096.63;1752354;80;21564;-81
2021/10/14 01:13:03;;;;;;;29.25;23.42;;;;;;;6.13;84.11;97099.08;1735611;79;21043;-81
2021/10/14 01:15:28;;;;;;;29.50;23.18;;;;;;;6.10;84.04;97093.72;1759953;80;21143;-82
2021/10/14 01:17:55;;;;;;;53.52;33.23;;;;;;;6.14;84.12;97098.94;1777055;78;21602;-81
2021/10/14 01:20:20;;;;;;;25.65;20.02;;;;;;;6.18;83.92;97097.73;1727344;80;21173;-81
2021/10/14 01:22:46;;;;;;;24.90;20.17;;;;;;;6.20;84.02;97096.30;1737800;81;21490;-81
2021/10/14 01:25:14;;;;;;;24.40;20.35;;;;;;;6.18;83.95;97100.31;1734361;80;21077;-81
2021/10/14 01:27:40;;;;;;;25.55;20.02;;;;;;;6.18;84.25;97100.76;1738529;80;21079;-81
2021/10/14 01:30:07;;;;;;;26.40;19.90;;;;;;;6.18;84.25;97102.05;1736695;80;21132;-81
2021/10/14 01:32:33;;;;;;;21.23;18.30;;;;;;;6.15;83.91;97103.14;1720896;81;21120;-81
2021/10/14 01:35:00;;;;;;;23.80;18.87;;;;;;;6.11;83.84;97107.43;1744714;79;21114;-81
2021/10/14 01:37:27;;;;;;;22.50;17.40;;;;;;;6.08;83.78;97107.70;1768504;78;21400;-81
2021/10/14 01:39:53;;;;;;;19.07;17.07;;;;;;;6.08;83.70;97106.42;1746749;79;21493;-81
2021/10/14 01:42:19;;;;;;;23.73;18.37;;;;;;;6.05;83.69;97102.83;1761929;80;21136;-81
2021/10/14 01:44:45;;;;;;;23.45;18.30;;;;;;;6.07;83.89;97100.92;1742409;80;21091;-81
2021/10/14 01:47:10;;;;;;;24.75;18.20;;;;;;;6.09;84.11;97102.41;1758548;78;21039;-81
2021/10/14 01:49:36;;;;;;;21.73;17.55;;;;;;;6.09;84.04;97105.47;1767714;79;21090;-81
2021/10/14 01:52:02;;;;;;;21.87;17.20;;;;;;;6.06;83.84;97100.11;1792813;78;21051;-81
2021/10/14 01:54:28;;;;;;;20.23;16.97;;;;;;;6.10;84.05;97101.45;1788667;78;21085;-81
2021/10/14 01:56:53;;;;;;;28.12;20.00;;;;;;;6.16;84.03;97100.09;1775676;78;21079;-81
2021/10/14 01:59:19;;;;;;;26.35;18.90;;;;;;;6.17;84.01;97096.55;1786699;78;21083;-81
2021/10/14 02:01:45;;;;;;;27.00;22.02;;;;;;;6.11;83.86;97100.50;1772311;79;21620;-81
2021/10/14 02:04:11;;;;;;;26.23;20.75;;;;;;;6.07;83.99;97105.61;1739321;81;21086;-81
2021/10/14 02:06:36;;;;;;;21.35;17.42;;;;;;;6.08;84.17;97106.42;1773177;80;21023;-81
2021/10/14 02:09:03;;;;;;;21.90;17.67;;;;;;;6.08;84.02;97107.70;1789986;79;21144;-81
2021/10/14 02:11:28;;;;;;;32.05;27.62;;;;;;;6.11;84.05;97108.24;1766002;80;21114;-81
2021/10/14 02:13:54;;;;;;;27.13;20.85;;;;;;;6.13;83.98;97108.92;1793642;79;21111;-81
2021/10/14 02:16:20;;;;;;;22.73;19.05;;;;;;;6.07;83.73;97105.61;1801122;79;21515;-81
2021/10/14 02:18:46;;;;;;;28.38;20.80;;;;;;;5.96;83.93;97107.02;1796262;79;21174;-81
2021/10/14 02:21:15;;;;;;;27.10;21.02;;;;;;;5.92;84.18;97109.05;1767302;79;21107;-81
2021/10/14 02:23:41;;;;;;;23.12;19.82;;;;;;;5.91;84.42;97113.88;1776813;78;21159;-81
2021/10/14 02:26:07;;;;;;;24.57;18.82;;;;;;;5.96;84.55;97105.73;1795462;77;21166;-81
2021/10/14 02:28:33;;;;;;;25.27;20.50;;;;;;;6.03;84.65;97113.28;1755285;79;21082;-81
2021/10/14 02:30:58;;;;;;;25.72;20.23;;;;;;;6.10;84.34;97112.25;1712648;79;21398;-81
2021/10/14 02:33:24;;;;;;;25.05;19.73;;;;;;;6.13;84.30;97115.38;1759024;79;21157;-81
2021/10/14 02:35:50;;;;;;;25.35;19.77;;;;;;;6.11;84.26;97113.41;1752232;79;21488;-81
2021/10/14 02:38:16;;;;;;;22.20;19.70;;;;;;;6.11;84.45;97113.88;1770370;79;21145;-81
2021/10/14 02:40:41;;;;;;;22.30;18.87;;;;;;;6.11;84.34;97116.46;1743039;80;21579;-81
2021/10/14 02:43:07;;;;;;;22.73;18.85;;;;;;;6.12;84.40;97114.22;1792533;78;21377;-82
2021/10/14 02:45:33;;;;;;;22.75;18.55;;;;;;;6.09;84.09;97111.91;1755234;80;21058;-81
2021/10/14 02:50:25;;;;;;;23.07;20.20;;;;;;;6.09;84.39;97109.34;1712763;80;21081;-81
2021/10/14 02:52:51;;;;;;;28.65;21.65;;;;;;;6.14;84.31;97112.31;1764124;78;21023;-81
2021/10/14 02:55:16;;;;;;;27.00;21.40;;;;;;;6.13;84.18;97111.98;1738687;79;21492;-81
2021/10/14 02:57:42;;;;;;;25.55;21.93;;;;;;;6.12;84.32;97111.64;1767444;77;21179;-81
2021/10/14 03:00:09;;;;;;;24.25;19.80;;;;;;;6.14;84.22;97112.31;1787227;77;21180;-81
2021/10/14 03:02:35;;;;;;;33.20;26.35;;;;;;;6.14;84.09;97110.55;1760295;78;21038;-81
2021/10/14 03:05:01;;;;;;;45.65;30.05;;;;;;;6.16;84.12;97112.52;1814672;77;21468;-81
2021/10/14 03:07:27;;;;;;;42.03;28.10;;;;;;;6.17;84.12;97109.45;1815893;77;21067;-81
2021/10/14 03:09:54;;;;;;;38.50;27.30;;;;;;;6.14;84.13;97107.97;1788306;78;21063;-81
2021/10/14 03:12:20;;;;;;;33.63;24.85;;;;;;;6.14;84.19;97114.42;1773864;79;21059;-81
2021/10/14 03:14:46;;;;;;;47.75;30.10;;;;;;;6.14;84.06;97112.31;1757630;80;21083;-81
2021/10/14 03:17:12;;;;;;;63.78;36.03;;;;;;;6.09;83.93;97110.63;1759829;78;21072;-81
2021/10/14 03:19:37;;;;;;;61.20;33.13;;;;;;;6.07;83.88;97109.95;1788340;79;21563;-81
2021/10/14 03:22:04;;;;;;;47.23;28.12;;;;;;;6.07;83.99;97116.40;1785038;79;21094;-81
2021/10/14 03:24:30;;;;;;;37.88;25.25;;;;;;;6.06;83.96;97114.77;1780335;78;21158;-81
2021/10/14 03:26:56;;;;;;;47.62;30.95;;;;;;;6.03;83.96;97117.63;1800718;78;20999;-81
2021/10/14 03:29:22;;;;;;;45.00;29.70;;;;;;;5.98;83.99;97118.83;1797814;77;21006;-81
2021/10/14 03:31:48;;;;;;;35.98;25.48;;;;;;;5.94;84.22;97121.34;1772972;79;21101;-81
2021/10/14 03:34:13;;;;;;;37.63;27.50;;;;;;;5.96;84.30;97116.05;1798997;78;21057;-81
2021/10/14 03:36:39;;;;;;;29.50;22.13;;;;;;;6.01;84.14;97118.55;1795768;79;21046;-81
2021/10/14 03:39:05;;;;;;;27.32;20.88;;;;;;;5.99;84.13;97117.88;1787329;79;21058;-82
2021/10/14 03:41:31;;;;;;;25.57;20.52;;;;;;;5.99;84.21;97123.03;1791798;78;21060;-81
2021/10/14 03:43:56;;;;;;;26.95;20.95;;;;;;;6.05;84.53;97125.56;1801293;78;21631;-81
2021/10/14 03:46:23;;;;;;;28.25;22.10;;;;;;;6.07;84.53;97129.30;1782969;78;21473;-81
2021/10/14 03:48:49;;;;;;;30.23;23.80;;;;;;;6.06;84.36;97130.25;1782478;78;21030;-81
2021/10/14 03:51:15;;;;;;;31.33;24.60;;;;;;;6.08;84.35;97134.80;1798435;78;21006;-82
2021/10/14 03:53:40;;;;;;;33.38;26.00;;;;;;;6.05;83.95;97137.66;1764295;80;21196;-82
2021/10/14 03:56:06;;;;;;;31.82;23.67;;;;;;;6.00;83.92;97132.40;1776679;78;21087;-81
2021/10/14 03:58:32;;;;;;;27.90;22.05;;;;;;;5.98;84.09;97135.59;1750400;80;21509;-81
2021/10/14 04:00:57;;;;;;;23.42;18.60;;;;;;;5.98;84.25;97131.72;1754047;79;21047;-81
2021/10/14 04:03:23;;;;;;;25.75;20.30;;;;;;;5.98;84.31;97138.17;1774995;79;21058;-81
2021/10/14 04:05:49;;;;;;;25.52;20.55;;;;;;;5.95;84.22;97133.77;1783546;78;21046;-81
2021/10/14 04:08:15;;;;;;;25.68;20.25;;;;;;;5.97;84.25;97139.60;1752077;80;21075;-81
2021/10/14 04:10:41;;;;;;;24.47;18.82;;;;;;;6.02;84.38;97138.74;1701747;79;21082;-81
2021/10/14 04:13:07;;;;;;;26.07;19.90;;;;;;;6.05;84.31;97145.39;1773849;77;21559;-81
2021/10/14 04:15:33;;;;;;;21.30;18.87;;;;;;;6.06;84.46;97148.31;1767594;78;21063;-81
2021/10/14 04:17:58;;;;;;;26.70;19.23;;;;;;;6.03;84.25;97149.41;1786177;78;21379;-81
2021/10/14 04:20:25;;;;;;;25.20;19.20;;;;;;;6.00;84.32;97159.48;1775911;79;21372;-81
2021/10/14 04:22:51;;;;;;;26.68;19.65;;;;;;;5.98;84.20;97158.00;1751239;80;21106;-81
2021/10/14 04:25:17;;;;;;;22.60;17.87;;;;;;;5.92;84.07;97160.64;1735245;79;21077;-81
2021/10/14 04:27:43;;;;;;;24.40;18.95;;;;;;;5.92;84.14;97164.52;1788944;79;21003;-81
2021/10/14 04:30:09;;;;;;;25.57;18.48;;;;;;;5.92;84.05;97164.52;1790041;78;21064;-81
2021/10/14 04:32:35;;;;;;;23.55;18.95;;;;;;;5.88;84.04;97170.05;1709978;79;21449;-81
2021/10/14 04:35:03;;;;;;;23.30;19.15;;;;;;;5.81;84.10;97170.22;1765747;79;21143;-81
2021/10/14 04:37:29;;;;;;;26.45;19.02;;;;;;;5.72;84.15;97166.69;1756647;79;21077;-81
2021/10/14 04:39:55;;;;;;;25.27;18.32;;;;;;;5.72;84.41;97167.50;1748150;79;21085;-81
2021/10/14 04:42:20;;;;;;;23.50;19.15;;;;;;;5.72;84.47;97167.98;1755174;79;21168;-81
2021/10/14 04:44:46;;;;;;;21.93;17.80;;;;;;;5.73;84.39;97165.74;1803042;78;21066;-81
2021/10/14 04:47:20;;;;;;;21.40;16.80;;;;;;;5.73;84.38;97167.84;1784391;78;21048;-81
2021/10/14 04:49:46;;;;;;;24.20;18.77;;;;;;;5.78;84.54;97175.17;1776299;79;21043;-81
2021/10/14 04:52:12;;;;;;;19.65;17.30;;;;;;;5.84;84.64;97178.98;1783502;78;21067;-81
2021/10/14 04:54:37;;;;;;;27.27;20.95;;;;;;;5.85;84.73;97178.84;1765705;79;21091;-81
2021/10/14 04:57:03;;;;;;;29.25;21.50;;;;;;;5.85;84.68;97177.55;1814498;77;21075;-81
2021/10/14 04:59:29;;;;;;;27.75;21.80;;;;;;;5.87;84.68;97183.89;1779211;78;21037;-81
2021/10/14 05:01:55;;;;;;;25.72;20.57;;;;;;;5.87;84.35;97180.03;1769830;77;21114;-81
2021/10/14 05:04:21;;;;;;;28.20;21.55;;;;;;;5.85;84.33;97181.89;1793158;77;21480;-81
2021/10/14 05:06:46;;;;;;;26.37;21.42;;;;;;;5.86;84.50;97188.24;1797231;78;21051;-81
2021/10/14 05:09:12;;;;;;;26.30;20.20;;;;;;;5.83;84.44;97185.90;1780640;78;21083;-81
2021/10/14 05:11:38;;;;;;;30.68;22.55;;;;;;;5.85;84.64;97187.87;1766588;79;21336;-81
2021/10/14 05:14:03;;;;;;;38.00;25.27;;;;;;;5.83;84.63;97189.77;1790402;78;21075;-81
2021/10/14 05:16:32;;;;;;;34.98;24.92;;;;;;;5.78;84.20;97191.13;1782794;78;21411;-81
2021/10/14 05:18:57;;;;;;;44.67;30.43;;;;;;;5.78;84.35;97194.99;1803506;77;21135;-81
2021/10/14 05:21:24;;;;;;;52.85;32.10;;;;;;;5.78;84.39;97195.80;1791964;78;21027;-81
2021/10/14 05:23:50;;;;;;;52.60;36.73;;;;;;;5.79;84.43;97200.02;1762311;78;21591;-81
2021/10/14 05:26:15;;;;;;;42.58;32.10;;;;;;;5.76;84.50;97202.86;1779156;79;21043;-81
2021/10/14 05:28:43;;;;;;;32.30;24.50;;;;;;;5.73;84.54;97205.71;1781815;78;21059;-81
2021/10/14 05:31:08;;;;;;;31.85;21.80;;;;;;;5.70;84.48;97205.98;1762801;79;21502;-81
2021/10/14 05:33:34;;;;;;;28.23;20.40;;;;;;;5.68;84.38;97210.42;1788454;79;21083;-81
2021/10/14 05:36:00;;;;;;;26.68;20.40;;;;;;;5.68;84.44;97208.66;1801489;78;21073;-81
2021/10/14 05:38:26;;;;;;;28.55;21.45;;;;;;;5.71;84.36;97210.19;1790838;78;21146;-81
2021/10/14 05:40:52;;;;;;;29.00;25.50;;;;;;;5.70;84.35;97208.08;1802423;78;21099;-81
2021/10/14 05:43:18;;;;;;;34.73;27.48;;;;;;;5.70;84.29;97213.72;1806840;77;21143;-81
2021/10/14 05:45:44;;;;;;;32.42;23.62;;;;;;;5.66;84.36;97215.72;1776060;80;21564;-81
2021/10/14 05:48:09;;;;;;;24.92;20.97;;;;;;;5.59;84.50;97216.38;1761005;80;21201;-81
2021/10/14 05:50:35;;;;;;;34.45;28.40;;;;;;;5.61;84.67;97214.01;1706592;82;21143;-81
2021/10/14 05:53:01;;;;;;;30.25;25.72;;;;;;;5.63;84.55;97219.84;1751493;80;21108;-81
2021/10/14 05:55:27;;;;;;;28.55;21.50;;;;;;;5.63;84.53;97218.56;1734124;80;21057;-81
2021/10/14 05:57:52;;;;;;;26.90;21.10;;;;;;;5.66;84.58;97222.63;1732087;79;21046;-81
2021/10/14 06:00:18;;;;;;;28.02;23.12;;;;;;;5.65;84.62;97222.30;1772340;78;21028;-81
2021/10/14 06:02:44;;;;;;;27.62;21.17;;;;;;;5.67;84.83;97221.21;1792248;77;21432;-81
2021/10/14 06:05:10;;;;;;;27.22;20.45;;;;;;;5.72;84.83;97218.27;1757630;78;21027;-82
2021/10/14 06:07:36;;;;;;;29.12;21.50;;;;;;;5.73;84.62;97222.00;1792667;79;21109;-81
2021/10/14 06:10:02;;;;;;;23.27;18.92;;;;;;;5.77;84.79;97224.31;1761886;78;21150;-81
2021/10/14 06:12:29;;;;;;;26.93;21.70;;;;;;;5.77;84.21;97222.55;1787359;77;21125;-81
2021/10/14 06:14:55;;;;;;;26.70;21.70;;;;;;;5.72;84.32;97222.95;1762034;79;21388;-81
2021/10/14 06:17:21;;;;;;;26.35;21.40;;;;;;;5.77;84.66;97227.70;1781608;78;21606;-81
2021/10/14 06:19:46;;;;;;;27.15;21.05;;;;;;;5.83;84.61;97227.17;1774232;79;21094;-81
2021/10/14 06:22:12;;;;;;;27.70;20.92;;;;;;;5.81;84.20;97225.67;1809268;78;21038;-81
2021/10/14 06:24:38;;;;;;;34.50;25.27;;;;;;;5.79;84.00;97227.56;1817724;77;21473;-81
2021/10/14 06:27:04;;;;;;;29.32;23.25;;;;;;;5.84;84.37;97226.69;1836917;77;21114;-81
2021/10/14 06:29:30;;;;;;;23.85;19.42;;;;;;;5.87;84.35;97228.56;1818637;77;21066;-81
2021/10/14 06:31:56;;;;;;;23.47;19.55;;;;;;;5.93;84.24;97231.11;1786396;77;21494;-81
2021/10/14 06:34:21;;;;;;;23.52;19.55;;;;;;;5.95;84.22;97220.17;1738366;78;21186;-81
2021/10/14 06:36:47;;;;;;;28.42;21.87;;;;;;;5.97;84.26;97217.80;1775726;78;21304;-81
2021/10/14 06:39:13;;;;;;;26.68;19.85;;;;;;;5.96;83.89;97214.88;1805162;77;21063;-81
2021/10/14 06:41:39;;;;;;;19.50;16.50;;;;;;;5.93;83.40;97210.00;1779165;78;21102;-81
2021/10/14 06:46:36;;;;;;;21.37;18.98;;;;;;;5.82;83.35;97206.20;1797445;76;21100;-81
2021/10/14 06:49:02;;;;;;;24.95;19.40;;;;;;;5.78;83.25;97218.20;1768037;79;21486;-81
2021/10/14 06:51:28;;;;;;;23.55;19.17;;;;;;;5.77;83.24;97210.94;1759202;80;21120;-81
2021/10/14 06:53:54;;;;;;;24.05;18.42;;;;;;;5.76;83.21;97210.59;1780978;77;21188;-81
2021/10/14 06:56:20;;;;;;;19.80;16.32;;;;;;;5.77;83.28;97209.65;1774332;78;21049;-81
2021/10/14 06:58:45;;;;;;;19.57;15.13;;;;;;;5.80;83.04;97208.56;1780113;79;21123;-81
2021/10/14 07:01:13;;;;;;;16.12;14.13;;;;;;;5.81;82.85;97208.44;1765166;80;21124;-81
2021/10/14 07:03:39;;;;;;;16.97;13.40;;;;;;;5.85;82.76;97206.40;1792820;79;21060;-81
2021/10/14 07:06:04;;;;;;;16.30;12.98;;;;;;;5.86;82.90;97202.91;1777172;79;21021;-81
2021/10/14 07:08:30;;;;;;;14.75;12.70;;;;;;;5.86;82.90;97205.00;1778064;78;21047;-81
2021/10/14 07:10:56;;;;;;;17.15;11.88;;;;;;;5.84;82.84;97209.45;1761433;80;21131;-82
2021/10/14 07:13:23;;;;;;;15.40;12.45;;;;;;;5.83;82.95;97207.83;1788516;78;21078;-81
2021/10/14 07:15:50;;;;;;;12.95;11.03;;;;;;;5.86;83.01;97206.77;1766244;77;21457;-81
2021/10/14 07:18:16;;;;;;;9.28;8.28;;;;;;;5.89;82.90;97206.02;1792989;78;21017;-81
2021/10/14 07:20:42;;;;;;;11.75;8.18;;;;;;;5.90;82.85;97206.39;1769067;79;21559;-81
2021/10/14 07:23:12;;;;;;;8.88;7.28;;;;;;;5.92;83.01;97203.20;1761351;80;21082;-81
2021/10/14 07:25:42;;;;;;;7.17;5.58;;;;;;;5.92;83.03;97204.50;1760221;81;21146;-81
2021/10/14 07:28:08;;;;;;;5.65;3.77;;;;;;;5.90;83.09;97203.00;1727901;81;21440;-81
2021/10/14 07:30:35;;;;;;;5.33;3.62;;;;;;;5.89;83.11;97204.73;1730745;78;21086;-81
2021/10/14 07:33:05;;;;;;;4.90;3.22;;;;;;;5.89;83.06;97198.77;1792875;78;21051;-81
2021/10/14 07:35:33;;;;;;;4.47;3.75;;;;;;;5.91;83.18;97199.00;1767046;78;21046;-81
2021/10/14 07:37:59;;;;;;;4.33;3.52;;;;;;;5.95;83.17;97193.91;1770384;79;21203;-81
2021/10/14 07:40:26;;;;;;;6.08;4.22;;;;;;;5.99;83.28;97197.03;1729276;80;21116;-82
2021/10/14 07:42:52;;;;;;;4.37;3.12;;;;;;;5.98;83.21;97185.89;1745728;79;21169;-81
2021/10/14 07:45:17;;;;;;;5.40;3.72;;;;;;;6.06;83.35;97196.05;1703842;82;21551;-81
2021/10/14 07:47:43;;;;;;;5.50;3.25;;;;;;;6.09;83.58;97190.13;1737713;80;21118;-81
2021/10/14 07:50:09;;;;;;;4.20;3.45;;;;;;;6.13;83.51;97184.22;1759691;80;21122;-81
2021/10/14 07:52:35;;;;;;;5.03;3.40;;;;;;;6.19;83.33;97186.28;1773371;79;21430;-81
2021/10/14 07:55:01;;;;;;;4.85;2.80;;;;;;;6.28;83.24;97187.56;1770340;79;21063;-81
2021/10/14 07:57:27;;;;;;;4.47;2.80;;;;;;;6.34;83.38;97182.33;1714239;82;21050;-83
2021/10/14 07:59:52;;;;;;;3.65;3.00;;;;;;;6.42;83.34;97194.57;1716402;80;21286;-81
2021/10/14 08:02:18;;;;;;;4.30;3.22;;;;;;;6.48;83.29;97194.83;1726531;80;21052;-81
2021/10/14 08:04:45;;;;;;;29.60;21.00;;;;;;;6.53;82.97;97193.97;1743094;80;21090;-81
2021/10/14 08:07:11;;;;;;;4.45;3.60;;;;;;;6.58;82.62;97196.95;1753920;80;21055;-81
2021/10/14 08:09:37;;;;;;;17.82;15.30;;;;;;;6.64;82.49;97196.86;1747137;80;21103;-81
2021/10/14 08:12:03;;;;;;;7.25;5.37;;;;;;;6.67;82.21;97200.94;1774358;79;21123;-81
2021/10/14 08:14:29;;;;;;;4.08;2.77;;;;;;;6.70;82.73;97207.95;1773374;80;21070;-83
2021/10/14 08:16:55;;;;;;;7.12;6.42;;;;;;;6.76;82.82;97202.23;1746923;80;21332;-81
2021/10/14 08:19:20;;;;;;;5.87;5.28;;;;;;;6.83;81.50;97199.90;1750019;80;21082;-81
2021/10/14 08:21:46;;;;;;;9.03;7.85;;;;;;;6.88;81.23;97201.13;1723880;81;21146;-81
2021/10/14 08:24:12;;;;;;;7.25;5.60;;;;;;;6.92;81.01;97199.89;1765425;79;21418;-81
2021/10/14 08:26:38;;;;;;;10.50;9.45;;;;;;;6.97;81.01;97202.05;1763505;80;21007;-81
2021/10/14 08:29:03;;;;;;;6.90;5.45;;;;;;;7.00;80.41;97203.57;1759240;80;21055;-81
2021/10/14 08:31:29;;;;;;;4.97;4.47;;;;;;;7.04;80.16;97199.75;1779359;80;21119;-81
2021/10/14 08:33:56;;;;;;;5.00;4.17;;;;;;;7.09;79.90;97203.53;1766915;79;21122;-81
2021/10/14 08:36:22;;;;;;;4.83;3.70;;;;;;;7.15;79.84;97204.25;1715258;81;21483;-81
2021/10/14 08:38:48;;;;;;;5.60;4.87;;;;;;;7.17;79.54;97197.68;1703049;80;21550;-82
2021/10/14 08:41:19;;;;;;;5.78;5.15;;;;;;;7.22;79.75;97199.36;1785798;79;21126;-81
2021/10/14 08:43:46;;;;;;;39.08;27.00;;;;;;;7.23;79.21;97206.97;1794923;79;21176;-81
2021/10/14 08:46:12;;;;;;;11.20;7.67;;;;;;;7.28;78.51;97199.27;1768249;79;21478;-81
2021/10/14 08:48:37;;;;;;;4.30;3.67;;;;;;;7.31;79.17;97196.39;1750288;80;21415;-81
2021/10/14 08:51:03;;;;;;;3.75;2.70;;;;;;;7.37;79.21;97199.72;1792263;79;21115;-81
2021/10/14 08:53:29;;;;;;;4.08;3.72;;;;;;;7.42;78.77;97195.74;1797255;79;21507;-81
2021/10/14 08:55:55;;;;;;;5.58;3.85;;;;;;;7.49;78.28;97196.01;1792869;78;21120;-81
2021/10/14 08:58:21;;;;;;;4.25;3.55;;;;;;;7.54;77.62;97197.67;1770060;79;21058;-81
2021/10/14 09:01:11;;;;;;;3.98;3.08;;;;;;;7.55;77.65;97196.72;1793631;79;21069;-81
2021/10/14 09:03:43;;;;;;;5.25;3.00;;;;;;;7.59;77.11;97194.17;1775226;79;21059;-81
2021/10/14 09:06:10;;;;;;;2.83;2.42;;;;;;;7.65;76.81;97201.86;1789955;78;21596;-82
2021/10/14 09:08:48;;;;;;;4.30;3.00;;;;;;;7.69;78.02;97193.66;1774899;79;21129;-81
2021/10/14 09:11:26;;;;;;;4.28;3.08;;;;;;;7.76;77.25;97189.53;1789956;77;21137;-81
2021/10/14 09:13:58;;;;;;;3.80;2.22;;;;;;;7.86;76.95;97193.85;1796266;77;21058;-81
2021/10/14 09:16:38;;;;;;;;;;;;;;;7.95;75.16;97195.07;1790257;78;21078;-82
2021/10/14 09:19:22;;;;;;;4.15;1.72;;;;;;;8.03;73.40;97197.77;1770401;80;20117;-82
2021/10/14 09:21:53;;;;;;;2.40;1.40;;;;;;;8.09;73.38;97194.58;1800481;77;21055;-81
2021/10/14 09:24:38;;;;;;;4.60;2.33;;;;;;;8.11;69.80;97195.24;1796242;77;21212;-82
2021/10/14 09:27:09;;;;;;;4.97;3.40;;;;;;;8.15;70.81;97196.27;1775351;77;21089;-81
2021/10/14 09:29:37;;;;;;;3.27;2.85;;;;;;;8.21;71.15;97195.67;1771129;78;21123;-81
2021/10/14 09:32:15;;;;;;;4.50;2.52;;;;;;;8.29;70.90;97194.44;1810520;77;21165;-82
2021/10/14 09:34:42;;;;;;;2.83;2.50;;;;;;;8.32;69.70;97197.58;1783380;77;21113;-82
2021/10/14 09:37:20;;;;;;;4.22;2.65;;;;;;;8.35;69.21;97193.42;1787691;77;21495;-81
2021/10/14 09:39:58;;;;;;;5.87;4.08;;;;;;;8.39;69.33;97197.33;1811741;76;21194;-81
2021/10/14 09:42:55;;;;;;;4.37;2.30;;;;;;;8.45;69.29;97198.98;1810325;77;21071;-81
2021/10/14 09:45:30;;;;;;;5.35;3.08;;;;;;;8.51;68.73;97194.53;1817097;76;21059;-82
2021/10/14 09:50:28;;;;;;;7.47;5.37;;;;;;;8.64;68.54;97193.19;1791234;77;22215;-82
2021/10/14 09:52:53;;;;;;;3.65;3.08;;;;;;;8.65;67.77;97194.81;1794908;77;21106;-82
2021/10/14 09:55:19;;;;;;;2.92;2.35;;;;;;;8.62;67.00;97199.02;1764699;77;21145;-82
2021/10/14 09:57:45;;;;;;;4.05;3.40;;;;;;;8.59;67.33;97205.76;1810271;77;21507;-82
2021/10/14 10:00:11;;;;;;;3.92;3.27;;;;;;;8.60;67.48;97202.20;1797983;77;21050;-82
2021/10/14 10:02:37;;;;;;;4.50;3.60;;;;;;;8.64;65.98;97202.27;1801958;77;21055;-82
2021/10/14 10:05:04;;;;;;;5.45;4.10;;;;;;;8.70;67.56;97202.14;1783669;77;21116;-82
2021/10/14 10:07:30;;;;;;;3.30;2.10;;;;;;;8.77;67.70;97199.74;1825334;77;21147;-82
2021/10/14 10:09:56;;;;;;;4.15;3.22;;;;;;;8.82;65.57;97201.42;1817571;77;21107;-82
2021/10/14 10:12:21;;;;;;;4.17;3.17;;;;;;;8.84;65.19;97197.71;1786319;78;21400;-82
2021/10/14 10:14:51;;;;;;;6.50;3.85;;;;;;;8.88;65.94;97200.81;1795389;77;21404;-83
2021/10/14 10:17:21;;;;;;;5.97;4.72;;;;;;;8.88;66.24;97196.44;1781699;78;21496;-82
2021/10/14 10:19:49;;;;;;;6.12;4.47;;;;;;;8.89;66.60;97198.55;1796995;77;21062;-82
2021/10/14 10:22:39;;;;;;;7.80;5.17;;;;;;;8.90;67.27;97200.17;1808709;77;21254;-82
2021/10/14 10:25:11;;;;;;;3.42;2.00;;;;;;;8.97;67.54;97199.92;1794259;77;21083;-82
2021/10/14 10:27:36;;;;;;;7.15;5.55;;;;;;;9.01;69.84;97190.38;1756881;79;21185;-82
2021/10/14 10:30:02;;;;;;;5.90;4.25;;;;;;;9.07;68.10;97187.66;1768725;78;21168;-82
2021/10/14 10:32:28;;;;;;;6.28;5.05;;;;;;;9.09;66.94;97185.72;1780147;79;21049;-82
2021/10/14 10:35:01;;;;;;;5.45;4.58;;;;;;;9.17;66.78;97177.19;1730448;79;21236;-82
2021/10/14 10:37:41;;;;;;;6.12;4.42;;;;;;;9.32;66.96;97176.95;1754178;79;21055;-82
2021/10/14 10:43:01;;;;;;;5.42;3.58;;;;;;;9.46;65.41;97163.41;1770090;78;21237;-82
2021/10/14 10:45:46;;;;;;;6.62;4.08;;;;;;;9.44;65.35;97158.87;1798220;78;21168;-82
2021/10/14 10:48:13;;;;;;;5.17;4.03;;;;;;;9.45;65.35;97159.67;1791495;77;21487;-82
2021/10/14 10:50:48;;;;;;;6.28;4.80;;;;;;;9.49;67.14;97151.91;1790550;78;21181;-82
2021/10/14 10:55:51;;;;;;;6.43;4.80;;;;;;;9.67;66.26;97150.52;1783037;78;21107;-82
2021/10/14 10:58:21;;;;;;;5.28;3.90;;;;;;;9.63;65.97;97153.42;1794016;77;21007;-82
2021/10/14 11:00:47;;;;;;;4.53;3.95;;;;;;;9.66;65.32;97146.30;1790300;78;21153;-82
2021/10/14 11:03:21;;;;;;;6.12;4.45;;;;;;;9.68;65.10;97141.75;1796874;77;21746;-82
2021/10/14 11:06:03;;;;;;;7.03;4.67;;;;;;;9.77;65.09;97147.31;1803941;76;21184;-82
2021/10/14 11:08:31;;;;;;;7.50;5.75;;;;;;;9.78;65.76;97140.66;1756642;80;21169;-82
2021/10/14 11:11:11;;;;;;;8.18;5.95;;;;;;;9.86;65.68;97136.78;1771316;78;21062;-82
2021/10/14 11:13:41;;;;;;;6.58;5.40;;;;;;;9.99;65.90;97135.52;1782535;78;21125;-82
2021/10/14 11:16:10;;;;;;;6.85;5.33;;;;;;;9.99;64.63;97121.23;1759178;79;21428;-82
2021/10/14 11:18:36;;;;;;;6.65;4.67;;;;;;;10.08;65.21;97127.56;1764693;79;21028;-82
2021/10/14 11:21:05;;;;;;;7.33;5.10;;;;;;;10.13;65.19;97119.31;1772765;78;21081;-82
2021/10/14 11:23:46;;;;;;;6.87;5.60;;;;;;;10.11;65.06;97119.47;1771951;78;21042;-82
2021/10/14 11:29:09;;;;;;;6.50;4.95;;;;;;;10.29;65.86;97128.45;1758435;80;21460;-82
2021/10/14 11:31:40;;;;;;;6.72;5.05;;;;;;;10.34;64.38;97126.66;1788421;78;21071;-82
2021/10/14 11:34:17;;;;;;;9.80;7.58;;;;;;;10.23;64.20;97114.79;1810371;78;21142;-82
2021/10/14 11:36:55;;;;;;;7.25;6.53;;;;;;;10.12;64.47;97110.71;1765125;79;21126;-82
2021/10/14 11:39:27;;;;;;;6.12;4.95;;;;;;;10.17;64.90;97105.84;1769418;80;21092;-82
2021/10/14 11:42:03;;;;;;;7.50;6.62;;;;;;;10.29;64.40;97108.16;1780756;78;21092;-82
2021/10/14 11:44:33;;;;;;;6.90;5.95;;;;;;;10.40;64.62;97101.31;1750418;80;21065;-82
2021/10/14 11:46:59;;;;;;;6.45;5.05;;;;;;;10.42;64.01;97100.20;1729876;80;21163;-82
2021/10/14 11:49:25;;;;;;;5.78;4.90;;;;;;;10.35;64.05;97101.00;1761030;79;21132;-82